Time;durP1;ratioP1;P1;durP2;ratioP2;P2;SDS_P1;SDS_P2;PMS_P1;PMS_P2;Temp;Humidity;BMP_temperature;BMP_pressure;BME280_temperature;BME280_humidity;BME280_pressure;Samples;Min_cycle;Max_cycle;Signal;HPM_P1;HPM_P2
2022/05/07 00:02:10;;;;;;;9.60;6.38;;;;;;;18.30;48.65;102241.34;5077571;28;20524;-63
2022/05/07 00:04:39;;;;;;;10.57;6.30;;;;;;;18.28;48.94;102229.88;5081738;28;20127;-62
2022/05/07 00:07:08;;;;;;;11.32;7.22;;;;;;;18.27;49.16;102233.66;5083071;28;20048;-62
2022/05/07 00:09:36;;;;;;;10.93;6.18;;;;;;;18.25;49.09;102230.34;5080915;28;20507;-64
2022/05/07 00:12:06;;;;;;;10.57;6.78;;;;;;;18.22;49.14;102231.66;5081974;28;20044;-62
2022/05/07 00:14:35;;;;;;;9.93;6.80;;;;;;;18.20;48.99;102237.34;5075760;28;20108;-62
2022/05/07 00:19:49;;;;;;;12.20;7.60;;;;;;;18.15;49.31;102231.78;5071223;28;20132;-62
2022/05/07 00:22:18;;;;;;;10.90;7.40;;;;;;;18.13;48.93;102233.91;5073136;28;20068;-62
2022/05/07 00:24:45;;;;;;;10.35;7.32;;;;;;;18.12;49.18;102229.53;5067515;28;20107;-61
2022/05/07 00:27:13;;;;;;;10.35;7.07;;;;;;;18.11;49.19;102221.63;5066624;28;20356;-62
2022/05/07 00:29:43;;;;;;;11.73;7.18;;;;;;;18.11;49.40;102225.16;5076865;28;20079;-62
2022/05/07 00:32:10;;;;;;;12.10;7.53;;;;;;;18.11;49.40;102221.63;5072006;28;20080;-62
2022/05/07 00:34:38;;;;;;;7.88;5.93;;;;;;;18.10;48.70;102225.41;5067013;28;20045;-62
2022/05/07 00:37:06;;;;;;;8.50;6.55;;;;;;;18.09;48.93;102231.91;5083116;28;20052;-62
2022/05/07 00:39:33;;;;;;;10.13;6.53;;;;;;;18.07;49.27;102218.53;5076928;28;20088;-62
2022/05/07 00:42:05;;;;;;;12.98;6.90;;;;;;;18.05;49.53;102220.69;5084206;28;20052;-62
2022/05/07 00:44:34;;;;;;;10.85;7.20;;;;;;;18.05;49.41;102217.13;5079315;28;20048;-62
2022/05/07 00:47:13;;;;;;;11.45;6.78;;;;;;;18.03;49.48;102216.53;5076738;28;20040;-62
2022/05/07 00:49:41;;;;;;;11.15;6.82;;;;;;;18.03;49.25;102211.09;5075692;28;20118;-62
2022/05/07 00:52:08;;;;;;;10.15;6.85;;;;;;;18.02;49.46;102215.72;5075374;28;20055;-62
2022/05/07 00:54:36;;;;;;;8.90;6.75;;;;;;;17.99;49.51;102208.03;5074970;28;20060;-62
2022/05/07 00:57:05;;;;;;;11.45;7.10;;;;;;;17.99;49.54;102208.03;5069276;28;20052;-63
2022/05/07 00:59:32;;;;;;;14.30;5.97;;;;;;;17.98;49.31;102200.09;5076487;28;20094;-63
2022/05/07 01:02:00;;;;;;;12.80;7.22;;;;;;;17.96;49.17;102205.78;5081566;28;20055;-63
2022/05/07 01:04:29;;;;;;;11.90;6.55;;;;;;;17.94;49.22;102204.38;5065357;28;20071;-63
2022/05/07 01:06:58;;;;;;;10.10;7.07;;;;;;;17.92;49.65;102199.16;5084286;28;20083;-63
2022/05/07 01:09:26;;;;;;;12.85;6.85;;;;;;;17.92;49.70;102201.06;5065499;28;20091;-63
2022/05/07 01:11:55;;;;;;;9.75;6.32;;;;;;;17.90;49.61;102198.56;5075764;28;20091;-63
2022/05/07 01:14:23;;;;;;;10.40;7.25;;;;;;;17.90;49.66;102206.72;5082068;28;20045;-65
2022/05/07 01:16:51;;;;;;;8.60;6.50;;;;;;;17.87;49.73;102199.88;5065405;28;20041;-62
2022/05/07 01:19:18;;;;;;;11.48;6.15;;;;;;;17.85;49.74;102196.56;5068834;28;20045;-63
2022/05/07 01:21:47;;;;;;;8.68;6.07;;;;;;;17.84;49.43;102197.63;5068755;28;20073;-62
2022/05/07 01:24:15;;;;;;;13.57;5.88;;;;;;;17.83;50.04;102198.69;5072389;28;20049;-63
2022/05/07 01:26:43;;;;;;;10.70;6.88;;;;;;;17.77;49.78;102187.94;5079308;28;20048;-63
2022/05/07 01:29:10;;;;;;;10.48;6.68;;;;;;;17.79;49.99;102194.78;5076948;28;20430;-63
2022/05/07 01:31:38;;;;;;;10.35;6.03;;;;;;;17.77;49.63;102194.19;5081311;28;20481;-63
2022/05/07 01:34:06;;;;;;;8.60;5.85;;;;;;;17.76;49.94;102197.97;5079867;28;20048;-63
2022/05/07 01:36:34;;;;;;;10.93;6.20;;;;;;;17.73;49.98;102190.31;5080827;28;20055;-63
2022/05/07 01:39:03;;;;;;;11.50;6.78;;;;;;;17.72;49.87;102195.97;5072898;28;20084;-63
2022/05/07 01:41:31;;;;;;;13.63;6.90;;;;;;;17.71;50.15;102191.59;5083408;28;20072;-62
2022/05/07 01:43:59;;;;;;;7.78;6.25;;;;;;;17.69;50.10;102185.56;5080836;28;20059;-63
2022/05/07 01:49:12;;;;;;;9.15;6.50;;;;;;;17.66;50.09;102186.88;5080284;28;20095;-63
2022/05/07 01:51:40;;;;;;;11.00;7.10;;;;;;;17.65;50.25;102178.91;5072505;28;20458;-62
2022/05/07 01:54:09;;;;;;;11.65;7.10;;;;;;;17.63;50.27;102181.88;5073456;28;20057;-63
2022/05/07 01:56:37;;;;;;;10.55;6.50;;;;;;;17.61;50.18;102185.91;5081622;28;20049;-63
2022/05/07 01:59:06;;;;;;;10.55;6.75;;;;;;;17.60;50.06;102179.63;5078863;28;20108;-63
2022/05/07 02:01:33;;;;;;;10.65;7.40;;;;;;;17.57;50.38;102182.81;5080997;28;20048;-63
2022/05/07 02:04:01;;;;;;;16.77;7.18;;;;;;;17.56;50.27;102176.56;5074145;28;20052;-63
2022/05/07 02:06:29;;;;;;;13.57;6.18;;;;;;;17.54;50.15;102170.53;5070591;28;20076;-62
2022/05/07 02:08:56;;;;;;;12.07;6.82;;;;;;;17.54;50.23;102183.28;5076646;28;20128;-61
2022/05/07 02:11:25;;;;;;;8.88;6.78;;;;;;;17.54;50.41;102177.84;5079764;28;20076;-62
2022/05/07 02:13:53;;;;;;;10.60;7.30;;;;;;;17.52;50.48;102177.25;5077767;28;20048;-62
2022/05/07 02:16:21;;;;;;;10.70;7.05;;;;;;;17.52;50.24;102171.81;5076487;28;20072;-61
2022/05/07 02:18:49;;;;;;;9.27;6.78;;;;;;;17.50;50.55;102174.78;5081929;28;20126;-62
2022/05/07 02:21:16;;;;;;;8.02;6.57;;;;;;;17.50;50.22;102169.34;5080337;28;20049;-62
2022/05/07 02:23:44;;;;;;;10.70;6.30;;;;;;;17.48;50.40;102166.03;5081178;28;20048;-62
2022/05/07 02:26:12;;;;;;;12.35;6.78;;;;;;;17.46;50.15;102162.72;5076944;28;20068;-62
2022/05/07 02:28:41;;;;;;;11.07;7.03;;;;;;;17.47;50.36;102168.97;5079801;28;20080;-62
2022/05/07 02:31:10;;;;;;;8.77;6.72;;;;;;;17.45;50.45;102171.94;5076681;28;20072;-63
2022/05/07 02:33:38;;;;;;;10.38;6.20;;;;;;;17.43;50.48;102168.63;5072119;28;20532;-61
2022/05/07 02:36:05;;;;;;;9.40;6.28;;;;;;;17.43;50.41;102167.81;5069179;28;20450;-62
2022/05/07 02:38:33;;;;;;;10.45;6.75;;;;;;;17.41;50.46;102168.03;5076638;28;20069;-62
2022/05/07 02:43:48;;;;;;;13.40;7.07;;;;;;;17.38;50.50;102152.19;5075340;28;20048;-62
2022/05/07 02:46:15;;;;;;;12.38;7.22;;;;;;;17.32;50.63;102147.72;5074497;28;20087;-63
2022/05/07 02:48:44;;;;;;;10.45;5.78;;;;;;;17.34;50.31;102156.44;5073206;28;20045;-62
2022/05/07 02:51:12;;;;;;;8.68;6.63;;;;;;;17.35;50.73;102162.72;5070374;28;20479;-62
2022/05/07 02:53:40;;;;;;;9.55;6.95;;;;;;;17.34;50.72;102163.78;5078770;28;20057;-62
2022/05/07 02:56:08;;;;;;;8.15;6.55;;;;;;;17.32;50.75;102158.59;5073484;28;20134;-62
2022/05/07 02:58:36;;;;;;;9.85;7.20;;;;;;;17.30;50.66;102163.44;5084283;28;20080;-62
2022/05/07 03:01:05;;;;;;;10.52;7.20;;;;;;;17.29;51.01;102155.53;5085969;28;20072;-61
2022/05/07 03:03:32;;;;;;;10.50;7.30;;;;;;;17.28;50.77;102160.13;5080266;28;20097;-62
2022/05/07 03:06:00;;;;;;;11.45;6.57;;;;;;;17.27;51.00;102163.09;5082532;28;20068;-62
2022/05/07 03:08:28;;;;;;;9.93;6.93;;;;;;;17.25;50.98;102155.16;5076423;28;20087;-62
2022/05/07 03:10:56;;;;;;;8.88;6.63;;;;;;;17.23;50.90;102157.28;5082377;28;20075;-63
2022/05/07 03:13:24;;;;;;;13.20;7.22;;;;;;;17.11;50.90;102132.81;5070371;28;20072;-61
2022/05/07 03:15:52;;;;;;;9.63;7.03;;;;;;;17.21;51.10;102154.81;5072412;28;20072;-62
2022/05/07 03:18:21;;;;;;;10.38;7.35;;;;;;;17.19;51.23;102156.09;5083456;28;20071;-63
2022/05/07 03:20:49;;;;;;;10.68;6.32;;;;;;;17.17;51.35;102150.91;5074560;28;20081;-62
2022/05/07 03:23:17;;;;;;;11.90;7.35;;;;;;;17.15;51.19;102144.88;5069080;28;20060;-62
2022/05/07 03:25:45;;;;;;;9.57;6.68;;;;;;;17.14;51.16;102143.22;5080832;28;20104;-62
2022/05/07 03:28:13;;;;;;;11.75;6.80;;;;;;;17.13;51.46;102147.00;5070611;28;20053;-62
2022/05/07 03:30:41;;;;;;;12.18;7.85;;;;;;;17.12;51.46;102148.06;5078812;28;20087;-62
2022/05/07 03:33:09;;;;;;;9.02;6.35;;;;;;;17.08;51.30;102141.44;5065547;28;20055;-62
2022/05/07 03:35:39;;;;;;;10.85;7.05;;;;;;;17.09;51.60;102150.41;5069041;28;20048;-62
2022/05/07 03:38:06;;;;;;;13.95;7.75;;;;;;;17.07;51.38;102150.66;5077026;28;20064;-61
2022/05/07 03:40:34;;;;;;;11.07;7.18;;;;;;;17.06;51.45;102150.88;5074582;28;20068;-62
2022/05/07 03:43:03;;;;;;;9.00;6.93;;;;;;;17.04;51.42;102161.97;5084356;28;20064;-61
2022/05/07 03:45:31;;;;;;;10.15;8.13;;;;;;;17.04;51.56;102163.88;5074757;28;20064;-62
2022/05/07 03:47:59;;;;;;;9.50;7.32;;;;;;;17.04;51.50;102163.88;5071821;28;20084;-62
2022/05/07 03:50:26;;;;;;;10.45;7.50;;;;;;;17.01;51.46;102161.63;5084820;28;20052;-62
2022/05/07 03:55:42;;;;;;;10.07;7.15;;;;;;;17.01;51.26;102167.06;5079226;28;20186;-62
2022/05/07 03:58:10;;;;;;;13.05;7.30;;;;;;;17.00;51.26;102168.09;5073385;28;20076;-62
2022/05/07 04:00:38;;;;;;;10.90;7.22;;;;;;;16.96;51.25;102161.47;5080088;28;20052;-62
2022/05/07 04:03:06;;;;;;;12.68;7.38;;;;;;;16.99;51.38;102169.16;5070257;28;20049;-62
2022/05/07 04:05:34;;;;;;;10.95;7.15;;;;;;;16.97;51.25;102177.53;5076926;28;20086;-62
2022/05/07 04:08:03;;;;;;;12.13;7.13;;;;;;;16.97;51.26;102176.72;5081093;28;20103;-63
2022/05/07 04:10:31;;;;;;;10.30;6.80;;;;;;;16.94;51.27;102174.47;5067198;28;20044;-63
2022/05/07 04:12:59;;;;;;;11.38;7.28;;;;;;;16.95;51.61;102182.38;5078212;28;20072;-62
2022/05/07 04:15:27;;;;;;;12.07;8.20;;;;;;;16.89;51.28;102173.28;5084128;28;20134;-62
2022/05/07 04:17:54;;;;;;;10.70;7.55;;;;;;;16.92;51.30;102167.38;5066566;28;20087;-63
2022/05/07 04:20:22;;;;;;;10.93;7.50;;;;;;;16.90;51.48;102177.66;5072107;28;20489;-62
2022/05/07 04:22:50;;;;;;;9.93;7.18;;;;;;;16.90;51.46;102185.78;5078877;28;20045;-62
2022/05/07 04:25:19;;;;;;;12.50;8.25;;;;;;;16.89;51.54;102183.31;5078693;28;20049;-63
2022/05/07 04:27:47;;;;;;;10.10;7.40;;;;;;;16.88;51.51;102187.91;5077742;28;20048;-62
2022/05/07 04:30:14;;;;;;;11.27;7.40;;;;;;;16.88;51.56;102195.22;5078131;28;20056;-62
2022/05/07 04:32:42;;;;;;;10.80;7.22;;;;;;;16.87;51.54;102188.13;5064933;28;20076;-62
2022/05/07 04:35:10;;;;;;;9.45;7.40;;;;;;;16.84;51.57;102181.28;5074147;28;20103;-62
2022/05/07 04:37:38;;;;;;;8.45;7.05;;;;;;;16.85;51.47;102182.94;5076188;28;20088;-64
2022/05/07 04:40:09;;;;;;;12.02;7.75;;;;;;;16.82;51.41;102186.13;5073657;28;20071;-63
2022/05/07 04:42:42;;;;;;;10.15;7.05;;;;;;;16.81;51.61;102186.34;5081939;28;20080;-62
2022/05/07 04:45:10;;;;;;;12.57;7.50;;;;;;;16.79;51.55;102178.44;5079416;28;20083;-61
2022/05/07 04:47:38;;;;;;;11.27;7.40;;;;;;;16.78;51.30;102184.94;5075682;28;20493;-62
2022/05/07 04:50:06;;;;;;;9.65;7.45;;;;;;;16.75;51.63;102177.25;5076519;28;20044;-62
2022/05/07 04:52:34;;;;;;;9.02;6.93;;;;;;;16.76;51.56;102180.78;5083639;28;20113;-63
2022/05/07 04:55:03;;;;;;;10.15;7.88;;;;;;;16.74;51.65;102185.63;5071145;28;20536;-62
2022/05/07 04:57:31;;;;;;;12.40;7.65;;;;;;;16.73;51.60;102192.09;5075256;28;20509;-62
2022/05/07 05:00:00;;;;;;;10.75;7.63;;;;;;;16.71;51.71;102197.75;5081967;28;20041;-62
2022/05/07 05:02:29;;;;;;;11.95;7.50;;;;;;;16.72;51.59;102193.16;5081205;28;20473;-62
2022/05/07 05:04:57;;;;;;;10.90;7.15;;;;;;;16.70;51.56;102200.69;5066615;28;20390;-62
2022/05/07 05:07:25;;;;;;;11.82;8.23;;;;;;;16.69;51.68;102202.59;5069972;28;20079;-62
2022/05/07 05:09:52;;;;;;;13.43;8.07;;;;;;;16.68;51.81;102198.22;5071893;28;20076;-63
2022/05/07 05:12:22;;;;;;;11.23;7.93;;;;;;;16.67;51.75;102207.41;5071204;28;20056;-62
2022/05/07 05:15:05;;;;;;;10.80;8.02;;;;;;;16.66;51.81;102210.38;5072857;28;20146;-63
2022/05/07 05:17:37;;;;;;;10.82;8.13;;;;;;;16.60;51.72;102215.63;5078523;28;20102;-62
2022/05/07 05:20:06;;;;;;;13.13;8.35;;;;;;;16.64;52.01;102218.69;5075461;28;20128;-63
2022/05/07 05:22:34;;;;;;;15.18;8.90;;;;;;;16.64;51.99;102220.59;4720783;28;10001196;-63
2022/05/07 05:25:05;;;;;;;15.93;10.02;;;;;;;16.63;52.06;102224.38;5078058;28;20098;-63
2022/05/07 05:27:32;;;;;;;12.38;8.73;;;;;;;16.62;51.75;102228.13;5066905;28;20052;-63
2022/05/07 05:30:00;;;;;;;15.50;8.55;;;;;;;16.61;51.84;102227.31;5068325;28;20102;-62
2022/05/07 05:32:29;;;;;;;15.20;9.90;;;;;;;16.60;51.95;102231.91;5078056;28;20067;-62
2022/05/07 05:34:58;;;;;;;16.02;9.45;;;;;;;16.60;51.95;102233.78;5079334;28;20076;-61
2022/05/07 05:37:25;;;;;;;16.00;9.85;;;;;;;16.60;52.35;102239.22;5072602;28;20087;-63
2022/05/07 05:39:53;;;;;;;14.05;9.50;;;;;;;16.59;52.23;102238.38;5077981;28;20076;-65
2022/05/07 05:42:21;;;;;;;12.55;9.05;;;;;;;16.58;52.16;102241.34;5079699;28;20048;-63
2022/05/07 05:44:49;;;;;;;11.75;9.20;;;;;;;16.58;51.92;102242.16;5070679;28;20509;-63
2022/05/07 05:47:17;;;;;;;17.90;10.98;;;;;;;16.58;51.97;102241.34;5072165;28;20108;-63
2022/05/07 05:49:45;;;;;;;13.35;9.60;;;;;;;16.57;52.05;102236.97;5066415;28;20084;-60
2022/05/07 05:52:14;;;;;;;14.48;9.98;;;;;;;16.57;52.03;102243.22;5067092;28;20143;-62
2022/05/07 05:54:41;;;;;;;14.05;9.75;;;;;;;16.58;51.87;102241.34;5071943;28;20648;-61
2022/05/07 05:57:14;;;;;;;15.32;10.30;;;;;;;16.57;52.00;102242.38;5075954;28;20578;-61
2022/05/07 05:59:42;;;;;;;16.20;10.25;;;;;;;16.57;52.09;102243.22;5074246;28;20052;-61
2022/05/07 06:02:09;;;;;;;15.90;12.27;;;;;;;16.56;52.48;102249.69;5074335;28;20095;-60
2022/05/07 06:04:37;;;;;;;15.75;11.88;;;;;;;16.54;52.44;102243.66;5069280;28;20119;-61
2022/05/07 06:07:05;;;;;;;15.38;11.70;;;;;;;16.54;52.90;102245.56;5075541;28;20082;-62
2022/05/07 06:09:34;;;;;;;16.15;11.77;;;;;;;16.53;52.90;102246.63;5067520;28;20067;-62
2022/05/07 06:12:01;;;;;;;18.85;12.18;;;;;;;16.53;52.59;102252.03;5064952;28;20075;-61
2022/05/07 06:14:29;;;;;;;16.08;11.50;;;;;;;16.54;52.68;102245.56;5068444;28;20088;-62
2022/05/07 06:16:57;;;;;;;15.45;11.32;;;;;;;16.54;52.63;102254.53;5070887;28;20040;-61
2022/05/07 06:19:26;;;;;;;17.27;11.32;;;;;;;16.54;52.76;102249.09;5075424;28;20062;-62
2022/05/07 06:21:53;;;;;;;16.95;11.38;;;;;;;16.54;52.92;102251.81;5061093;28;20072;-61
2022/05/07 06:29:53;;;;;;;15.02;10.23;;;;;;;16.57;52.66;102254.06;5077696;28;20048;-62
2022/05/07 06:32:21;;;;;;;19.40;11.82;;;;;;;16.58;52.48;102258.44;5082731;28;20500;-61
2022/05/07 06:34:49;;;;;;;19.05;10.68;;;;;;;16.57;52.43;102256.78;5078984;28;20105;-63
2022/05/07 06:37:17;;;;;;;17.70;11.52;;;;;;;16.48;52.43;102238.31;5075368;28;20041;-62
2022/05/07 06:39:44;;;;;;;17.90;10.20;;;;;;;16.62;52.51;102263.41;5080268;28;20052;-62
2022/05/07 06:42:15;;;;;;;15.68;10.55;;;;;;;16.64;52.24;102258.59;5080940;28;20067;-61
2022/05/07 06:44:43;;;;;;;16.38;10.10;;;;;;;16.64;52.14;102253.16;5077522;28;20052;-61
2022/05/07 06:47:11;;;;;;;16.65;10.48;;;;;;;16.67;52.28;102264.44;5069515;28;20083;-62
2022/05/07 06:49:38;;;;;;;17.75;9.85;;;;;;;16.67;52.36;102261.72;5068521;28;21005;-67
2022/05/07 06:52:07;;;;;;;16.92;10.23;;;;;;;16.68;52.38;102262.53;5078469;28;20056;-67
2022/05/07 06:54:34;;;;;;;18.50;9.82;;;;;;;16.68;52.36;102262.53;5077632;28;20068;-62
2022/05/07 06:57:03;;;;;;;16.55;10.10;;;;;;;16.66;52.36;102251.91;5077502;28;20091;-59
2022/05/07 06:59:32;;;;;;;17.08;10.20;;;;;;;16.70;52.30;102266.69;5079100;28;20539;-59
2022/05/07 07:02:00;;;;;;;18.05;10.52;;;;;;;16.71;52.57;102267.53;5079853;28;20068;-61
2022/05/07 07:04:28;;;;;;;18.23;9.80;;;;;;;16.73;52.67;102271.66;5078908;28;20088;-61
2022/05/07 07:06:55;;;;;;;14.35;10.32;;;;;;;16.75;52.55;102269.56;5078651;28;20123;-60
2022/05/07 07:09:23;;;;;;;15.05;9.95;;;;;;;16.76;52.60;102264.94;5075189;28;20144;-60
2022/05/07 07:11:51;;;;;;;16.83;10.57;;;;;;;16.78;52.53;102268.25;5071421;28;20060;-60
2022/05/07 07:14:19;;;;;;;29.27;13.95;;;;;;;16.78;53.86;102260.94;5073356;28;20080;-59
2022/05/07 07:16:48;;;;;;;29.05;13.65;;;;;;;16.74;54.12;102272.50;5073032;28;20128;-61
2022/05/07 07:19:16;;;;;;;21.13;12.30;;;;;;;16.73;54.32;102263.53;5076763;28;20044;-63
2022/05/07 07:21:44;;;;;;;21.98;13.35;;;;;;;16.75;53.56;102264.13;5077265;28;20056;-61
2022/05/07 07:24:11;;;;;;;19.38;12.50;;;;;;;16.79;53.49;102261.78;5081200;28;20538;-59
2022/05/07 07:26:39;;;;;;;22.77;12.15;;;;;;;16.81;53.25;102263.19;5079818;28;20112;-61
2022/05/07 07:29:07;;;;;;;21.25;11.15;;;;;;;16.83;52.99;102261.09;5077743;28;20106;-61
2022/05/07 07:31:35;;;;;;;21.55;10.82;;;;;;;16.85;52.87;102261.69;5072447;28;20095;-61
2022/05/07 07:34:04;;;;;;;16.65;10.20;;;;;;;16.87;52.62;102262.28;5076283;28;20198;-61
2022/05/07 07:36:31;;;;;;;18.17;10.30;;;;;;;16.89;52.68;102260.16;5071114;28;20061;-60
2022/05/07 07:38:59;;;;;;;18.15;11.38;;;;;;;16.92;52.41;102258.88;5083161;28;20048;-61
2022/05/07 07:41:27;;;;;;;14.38;9.48;;;;;;;16.94;52.42;102262.19;5074916;28;20127;-61
2022/05/07 07:43:55;;;;;;;15.13;9.60;;;;;;;16.96;52.32;102260.09;5085285;28;20051;-61
2022/05/07 07:49:10;;;;;;;16.50;8.40;;;;;;;16.99;51.97;102259.63;5083128;28;20087;-60
2022/05/07 07:51:37;;;;;;;16.23;9.35;;;;;;;17.00;51.86;102260.44;5078938;28;20089;-60
2022/05/07 07:54:05;;;;;;;14.00;8.52;;;;;;;16.99;51.99;102256.91;5081628;28;20044;-62
2022/05/07 07:56:34;;;;;;;12.60;8.07;;;;;;;17.05;51.80;102263.31;5072575;28;20099;-61
2022/05/07 07:59:01;;;;;;;14.60;8.02;;;;;;;17.06;51.92;102259.53;5066421;28;20049;-60
2022/05/07 08:01:29;;;;;;;13.10;7.53;;;;;;;17.08;51.78;102260.13;5083807;28;20079;-60
2022/05/07 08:03:57;;;;;;;17.65;7.78;;;;;;;17.10;51.79;102258.00;5082835;28;20048;-61
2022/05/07 08:06:26;;;;;;;11.77;6.93;;;;;;;17.11;51.60;102252.34;5078357;28;20517;-61
2022/05/07 08:11:44;;;;;;;17.20;7.88;;;;;;;17.15;51.51;102258.16;5076311;28;20056;-61
2022/05/07 08:14:14;;;;;;;12.15;7.25;;;;;;;17.16;51.47;102252.47;5078814;28;20062;-60
2022/05/07 08:16:43;;;;;;;15.95;7.95;;;;;;;17.17;51.44;102259.56;5074633;28;20052;-61
2022/05/07 08:19:12;;;;;;;13.13;8.07;;;;;;;17.19;51.49;102259.34;5068518;28;20047;-61
2022/05/07 08:21:41;;;;;;;14.88;8.75;;;;;;;17.20;51.38;102258.28;5074168;28;20167;-61
2022/05/07 08:24:09;;;;;;;13.45;8.25;;;;;;;17.22;51.42;102258.88;5071795;28;20048;-61
2022/05/07 08:26:36;;;;;;;12.23;7.20;;;;;;;17.24;51.64;102248.59;5077090;28;20049;-61
2022/05/07 08:29:04;;;;;;;14.88;8.30;;;;;;;17.26;51.49;102257.34;5084355;28;20080;-61
2022/05/07 08:31:32;;;;;;;12.63;7.78;;;;;;;17.30;51.82;102257.72;5078491;28;20108;-61
2022/05/07 08:34:00;;;;;;;13.60;7.03;;;;;;;17.34;51.64;102269.75;5082408;28;20344;-61
2022/05/07 08:36:27;;;;;;;16.55;7.97;;;;;;;17.36;51.75;102267.63;5074351;28;20127;-61
2022/05/07 08:38:56;;;;;;;15.70;8.45;;;;;;;17.39;51.80;102265.28;5070120;28;20079;-62
2022/05/07 08:41:25;;;;;;;15.45;7.22;;;;;;;17.43;52.13;102266.47;5080776;28;20072;-62
2022/05/07 08:43:53;;;;;;;13.75;7.68;;;;;;;17.27;52.33;102236.44;5073852;28;20083;-61
2022/05/07 08:46:21;;;;;;;19.90;9.55;;;;;;;17.49;52.19;102262.00;5079961;28;20571;-61
2022/05/07 08:48:51;;;;;;;14.20;9.45;;;;;;;17.51;52.38;102259.88;5075262;28;20126;-60
2022/05/07 08:51:21;;;;;;;15.68;9.00;;;;;;;17.55;52.39;102253.72;5074824;28;20063;-59
2022/05/07 08:53:53;;;;;;;22.17;8.82;;;;;;;17.61;53.15;102259.28;5078929;28;20431;-60
2022/05/07 08:56:24;;;;;;;16.88;8.10;;;;;;;17.61;53.47;102256.56;5078104;28;20044;-59
2022/05/07 08:58:54;;;;;;;16.27;8.82;;;;;;;17.67;53.05;102266.53;5073329;28;20133;-59
2022/05/07 09:01:23;;;;;;;28.30;10.35;;;;;;;17.70;53.15;102255.19;5066653;28;20068;-59
2022/05/07 09:03:51;;;;;;;19.63;9.95;;;;;;;17.71;53.49;102254.97;5070621;28;20076;-61
2022/05/07 09:06:21;;;;;;;21.08;12.18;;;;;;;17.81;54.19;102252.50;5078387;28;20071;-61
2022/05/07 09:08:50;;;;;;;19.77;10.10;;;;;;;17.78;54.03;102250.25;5077163;28;20071;-61
2022/05/07 09:11:19;;;;;;;16.65;9.13;;;;;;;17.83;54.01;102249.53;5077919;28;20106;-61
2022/05/07 09:13:59;;;;;;;15.20;7.47;;;;;;;17.84;53.87;102246.59;5079018;28;20082;-62
2022/05/07 09:16:37;;;;;;;16.38;8.55;;;;;;;17.85;53.56;102247.41;5082028;28;20071;-62
2022/05/07 09:19:05;;;;;;;17.58;8.63;;;;;;;17.87;53.52;102248.84;5072892;28;20040;-62
2022/05/07 09:21:34;;;;;;;19.00;10.13;;;;;;;17.87;53.08;102242.56;5077759;28;20048;-61
2022/05/07 09:24:03;;;;;;;13.52;9.40;;;;;;;17.87;53.09;102243.38;5076824;28;20059;-61
2022/05/07 09:26:32;;;;;;;17.02;10.55;;;;;;;17.89;53.41;102243.97;5074582;28;20056;-61
2022/05/07 09:29:03;;;;;;;14.63;10.32;;;;;;;17.93;53.27;102238.06;5075683;28;20053;-61
2022/05/07 09:31:32;;;;;;;13.73;8.80;;;;;;;17.98;53.70;102238.19;5084251;28;20052;-60
2022/05/07 09:36:52;;;;;;;13.45;8.82;;;;;;;18.06;53.38;102240.53;5075290;28;20139;-61
2022/05/07 09:39:20;;;;;;;12.98;8.25;;;;;;;18.06;53.25;102241.38;5069448;28;20089;-62
2022/05/07 09:41:54;;;;;;;17.40;9.00;;;;;;;18.07;53.17;102240.31;5079602;28;20052;-60
2022/05/07 09:44:26;;;;;;;13.30;8.70;;;;;;;18.09;53.33;102240.06;5073072;28;20419;-60
2022/05/07 09:46:54;;;;;;;14.23;8.65;;;;;;;18.11;53.22;102235.22;5080631;28;20083;-61
2022/05/07 09:49:25;;;;;;;11.77;8.40;;;;;;;18.14;53.26;102240.19;5082327;28;20059;-61
2022/05/07 09:51:54;;;;;;;13.15;9.68;;;;;;;18.18;53.38;102246.81;5073989;28;20488;-62
2022/05/07 10:00:02;;;;;;;11.48;7.70;;;;;;;18.40;53.34;102230.69;5074248;28;20123;-61
2022/05/07 10:03:00;;;;;;;13.45;7.47;;;;;;;18.45;53.66;102236.22;4729058;28;10000138;-62
2022/05/07 10:05:52;;;;;;;18.60;8.63;;;;;;;18.52;53.57;102229.59;5072712;28;20082;-60
2022/05/07 10:08:37;;;;;;;11.50;6.78;;;;;;;18.56;53.35;102232.66;5074487;28;20087;-61
2022/05/07 10:11:06;;;;;;;12.85;6.50;;;;;;;18.59;53.46;102232.16;5076301;28;20124;-60
2022/05/07 10:13:34;;;;;;;11.32;5.97;;;;;;;18.61;53.02;102230.06;5074183;28;20056;-60
2022/05/07 10:16:04;;;;;;;10.60;6.35;;;;;;;18.62;52.99;102229.00;5074169;28;20121;-60
2022/05/07 10:18:38;;;;;;;13.20;6.75;;;;;;;18.63;53.18;102227.94;5088726;28;20385;-60
2022/05/07 10:21:14;;;;;;;12.60;7.50;;;;;;;18.64;52.38;102232.31;5074970;28;20234;-61
2022/05/07 10:23:55;;;;;;;14.63;7.80;;;;;;;18.64;51.62;102224.13;5070262;28;20119;-62
2022/05/07 10:26:39;;;;;;;20.75;9.00;;;;;;;18.64;51.30;102232.31;5077438;28;20102;-61
2022/05/07 10:29:07;;;;;;;16.60;9.02;;;;;;;18.64;51.74;102228.75;5075219;28;20052;-61
2022/05/07 10:31:45;;;;;;;16.10;8.48;;;;;;;18.67;51.76;102220.09;5078101;28;20076;-61
2022/05/07 10:34:24;;;;;;;15.73;8.95;;;;;;;18.70;50.92;102225.06;5078697;28;20062;-62
2022/05/07 10:37:00;;;;;;;16.40;8.02;;;;;;;18.71;50.59;102227.53;5083196;28;20080;-62
2022/05/07 10:39:28;;;;;;;17.15;7.95;;;;;;;18.76;51.39;102219.47;5074832;28;20076;-62
2022/05/07 10:41:57;;;;;;;15.95;7.95;;;;;;;18.84;51.97;102221.81;5082161;28;20072;-63
2022/05/07 10:44:32;;;;;;;13.57;7.80;;;;;;;18.89;51.23;102221.06;5079608;28;20091;-62
2022/05/07 10:47:12;;;;;;;12.33;6.80;;;;;;;18.94;50.84;102206.72;5079947;28;20621;-63
2022/05/07 10:49:54;;;;;;;10.30;6.32;;;;;;;19.02;51.55;102220.78;5065884;28;20479;-62
2022/05/07 10:52:33;;;;;;;12.10;6.35;;;;;;;19.10;51.00;102212.16;5072705;28;20371;-62
2022/05/07 10:55:09;;;;;;;10.43;5.82;;;;;;;19.14;50.69;102209.78;5068504;28;20197;-62
2022/05/07 10:57:45;;;;;;;12.32;6.43;;;;;;;19.14;49.43;102210.59;5067547;28;20083;-62
2022/05/07 11:00:14;;;;;;;;;;;;;;;19.16;49.12;102213.09;5079310;28;20044;-62
2022/05/07 11:02:45;;;;;;;9.95;6.20;;;;;;;19.19;49.70;102207.16;5076234;28;19963;-61
2022/05/07 11:05:13;;;;;;;8.23;5.40;;;;;;;19.25;50.24;102208.06;5075426;28;20488;-62
2022/05/07 11:07:42;;;;;;;14.13;6.07;;;;;;;19.33;50.49;102208.47;5080965;28;20095;-62
2022/05/07 11:10:11;;;;;;;11.05;5.70;;;;;;;19.40;50.19;102205.59;5081068;28;20048;-61
2022/05/07 11:12:39;;;;;;;7.80;5.22;;;;;;;19.45;50.12;102206.50;5082747;28;20048;-61
2022/05/07 11:15:08;;;;;;;12.60;6.18;;;;;;;19.50;49.90;102203.03;4721301;28;10000465;-61
2022/05/07 11:17:40;;;;;;;10.23;4.78;;;;;;;19.55;50.14;102200.41;5081697;28;20063;-62
2022/05/07 11:20:13;;;;;;;10.55;6.03;;;;;;;19.60;49.81;102200.50;5073342;28;20044;-62
2022/05/07 11:22:41;;;;;;;10.75;5.22;;;;;;;19.66;49.98;102196.78;5086161;28;20086;-62
2022/05/07 11:25:09;;;;;;;11.82;5.60;;;;;;;19.75;50.54;102203.47;5068792;28;20680;-62
2022/05/07 11:27:37;;;;;;;14.02;6.40;;;;;;;19.79;49.90;102212.78;5071928;28;20053;-61
2022/05/07 11:30:10;;;;;;;23.13;8.10;;;;;;;19.73;46.60;102202.06;5083390;28;20123;-61
2022/05/07 11:32:39;;;;;;;10.13;5.38;;;;;;;19.71;47.94;102201.47;5081480;28;20044;-61
2022/05/07 11:35:09;;;;;;;9.85;5.25;;;;;;;19.71;47.96;102191.38;5083188;28;20087;-61
2022/05/07 11:37:42;;;;;;;10.32;5.75;;;;;;;19.74;47.87;102188.16;5077740;28;20040;-59
2022/05/07 11:40:11;;;;;;;9.25;5.82;;;;;;;19.77;47.19;102190.38;5081753;28;21123;-61
2022/05/07 11:42:43;;;;;;;15.45;5.50;;;;;;;19.81;47.41;102191.53;5086052;28;20064;-61
2022/05/07 11:45:31;;;;;;;11.45;5.55;;;;;;;19.88;47.49;102190.53;5068596;28;20057;-60
2022/05/07 11:48:02;;;;;;;8.02;4.75;;;;;;;19.91;47.40;102179.13;5079003;28;20049;-60
2022/05/07 11:50:32;;;;;;;10.13;6.28;;;;;;;19.93;45.99;102183.25;5082915;28;20055;-61
2022/05/07 11:53:12;;;;;;;13.35;6.43;;;;;;;19.88;44.58;102180.44;5082839;28;20072;-62
2022/05/07 11:55:40;;;;;;;11.50;5.85;;;;;;;19.90;44.56;102183.75;5084763;28;20087;-61
2022/05/07 11:58:16;;;;;;;12.27;6.05;;;;;;;19.89;43.97;102181.28;5079407;28;20087;-61